Thomaston, GA (30286)

7:10 AM EST on December 05, 2016 (GMT -0500)
Weaver Park | | Change Station

Elev 774 ft 32.89 °N, 84.32 °W | Updated 30 seconds ago

Overcast
Overcast
44.4 °F
Feels Like 44 °F
N
2.7
Wind Variable Wind from South

Today
High -- | Low -- °F
--% Chance of Precip.
Yesterday
High -- | Low -- °F
Precip. -- in
Pressure 29.98 in
Visibility 0.8 miles
Clouds Overcast 300 ft
Windchill 44 °F
Dew Point 44 °F
Humidity 99%
Rainfall 0.18 in
Snow Depth Not available.
7:25 AM 5:30 PM
Waxing Crescent, 31% visible
METAR KOPN 051155Z AUTO 07003KT 3/4SM BR OVC003 07/05 A2998 RMK AO2
Pressure 29.98 in
Visibility 0.8 miles
Clouds Overcast 300 ft
Windchill 44 °F
Dew Point 44 °F
Humidity 99%
Rainfall 0.18 in
Snow Depth Not available.
7:25 AM 5:30 PM
Waxing Crescent, 31% visible
METAR KOPN 051155Z AUTO 07003KT 3/4SM BR OVC003 07/05 A2998 RMK AO2

10-Day Weather Forecast

Almanac

Astronomy

Dec. 05, 2016 Rise Set
Actual Time
Civil Twilight
Nautical Twilight
Astronomical Twilight
Moon
Length of Visible Light
Length of Day
Tomorrow will be .
, % of the Moon is Illuminated

Today's Extremes

State Highs State Lows

Community

WunderPhotos

Upload Photos

1,955,779 photos uploaded!

WunderBlog® & News

Nearby

Air Quality

  Air Quality AQ Index Pollutant
Not available.

Snow Depth

Station Depth Elevation

Earthquake Activity

City Distance Mag. Time & Date
Minimum magnitude displayed is 2.5.

Coastal Water Temperatures

Place Temperature

Stations

Nearby Weather Stations

Station Location Temp. Windchill Dew Point Humidity Wind Precip. Elev Updated Type
                   

Watches & Warnings

There are currently no watches in effect.